Time;durP1;ratioP1;P1;durP2;ratioP2;P2;SDS_P1;SDS_P2;PMS_P1;PMS_P2;Temp;Humidity;BMP_temperature;BMP_pressure;BME280_temperature;BME280_humidity;BME280_pressure;Samples;Min_cycle;Max_cycle;Signal;HPM_P1;HPM_P2
2022/12/29 00:01:47;;;;;;;1.40;0.80;;;;;;;19.10;45.70;99991.66;4991511;28;20104;-68
2022/12/29 00:04:14;;;;;;;2.25;0.90;;;;;;;19.08;45.84;99977.78;4991123;28;20041;-68
2022/12/29 00:06:40;;;;;;;3.15;0.90;;;;;;;19.09;45.86;99993.47;5000857;28;20030;-68
2022/12/29 00:09:05;;;;;;;2.47;1.10;;;;;;;19.08;45.72;99999.72;4999828;28;20034;-67
2022/12/29 00:11:30;;;;;;;3.17;0.80;;;;;;;19.07;45.77;99978.75;4987385;28;20076;-69
2022/12/29 00:16:42;;;;;;;2.33;1.00;;;;;;;19.05;45.65;99960.41;4985766;28;20073;-66
2022/12/29 00:35:07;;;;;;;2.10;0.98;;;;;;;19.02;45.68;99966.00;4981551;28;20061;-67
2022/12/29 00:35:52;;;;;;;1.50;0.80;;;;;;;18.97;45.64;99947.97;4995564;28;20485;-69
2022/12/29 00:46:29;;;;;;;2.45;0.88;;;;;;;18.94;45.87;99937.69;4986700;28;20528;-69
2022/12/29 00:51:38;;;;;;;1.43;0.80;;;;;;;18.90;45.96;99930.25;4981551;28;20037;-68
2022/12/29 00:54:03;;;;;;;1.98;0.80;;;;;;;18.92;45.95;99928.28;4990770;28;20267;-72
2022/12/29 00:56:29;;;;;;;1.60;0.68;;;;;;;18.90;45.79;99923.16;5001015;28;20040;-68
2022/12/29 00:58:54;;;;;;;1.42;0.80;;;;;;;18.89;45.97;99918.84;5003672;28;20033;-70
2022/12/29 01:01:19;;;;;;;1.30;0.70;;;;;;;18.90;46.16;99931.09;5003033;28;20038;-71
2022/12/29 01:03:45;;;;;;;1.92;0.90;;;;;;;18.78;46.03;99911.13;4991623;28;20125;-68
2022/12/29 01:06:11;;;;;;;0.90;0.75;;;;;;;18.88;46.15;99911.91;4996577;28;20117;-66
2022/12/29 01:08:37;;;;;;;1.63;0.80;;;;;;;18.87;46.24;99906.78;4985021;28;20030;-71
2022/12/29 01:11:12;;;;;;;2.15;0.88;;;;;;;18.83;46.10;99893.88;4997237;28;20463;-70
2022/12/29 01:13:40;;;;;;;1.52;0.80;;;;;;;18.85;46.08;99902.50;4990674;28;20038;-71
2022/12/29 01:16:06;;;;;;;1.63;0.80;;;;;;;18.82;46.31;99888.75;4990214;28;20038;-68
2022/12/29 01:18:31;;;;;;;1.40;0.70;;;;;;;18.84;46.19;99898.19;4984559;28;20034;-67
2022/12/29 01:21:02;;;;;;;1.92;0.88;;;;;;;18.82;46.22;99902.78;4997460;28;20096;-68
2022/12/29 01:23:28;;;;;;;1.58;0.77;;;;;;;18.82;46.26;99902.78;4984768;28;20041;-67
2022/12/29 01:25:53;;;;;;;1.42;0.70;;;;;;;18.81;46.25;99895.81;4984963;28;20037;-68
2022/12/29 01:28:18;;;;;;;1.50;0.60;;;;;;;18.81;46.43;99895.00;4992027;28;20034;-69
2022/12/29 01:30:44;;;;;;;1.10;0.60;;;;;;;18.78;46.32;99884.75;5004113;28;20025;-68
2022/12/29 01:33:09;;;;;;;2.83;0.90;;;;;;;18.78;46.32;99880.28;5003836;28;20033;-71
2022/12/29 01:35:34;;;;;;;1.17;0.70;;;;;;;18.79;46.37;99887.22;4984598;28;20050;-66
2022/12/29 01:38:00;;;;;;;1.20;0.68;;;;;;;18.78;46.25;99888.19;4984041;28;20771;-67
2022/12/29 01:40:25;;;;;;;2.42;0.80;;;;;;;18.77;46.32;99880.44;4988334;28;20030;-68
2022/12/29 01:42:50;;;;;;;1.77;0.80;;;;;;;18.74;46.19;99884.22;4995329;28;20478;-68
2022/12/29 01:45:17;;;;;;;1.67;0.85;;;;;;;18.75;46.21;99880.59;4984485;28;20022;-71
2022/12/29 01:47:54;;;;;;;1.73;0.57;;;;;;;18.71;46.13;99866.06;5002522;28;20569;-70
2022/12/29 01:50:32;;;;;;;1.63;0.70;;;;;;;18.75;46.20;99888.50;4995361;28;20038;-68
2022/12/29 01:53:05;;;;;;;1.88;0.60;;;;;;;18.70;46.06;99884.69;4984262;28;20041;-67
2022/12/29 01:55:38;;;;;;;2.15;0.85;;;;;;;18.74;46.24;99889.50;4986542;28;20031;-68
2022/12/29 01:58:05;;;;;;;2.00;0.80;;;;;;;18.70;46.21;99884.69;4982728;28;20180;-68
2022/12/29 02:00:32;;;;;;;2.05;0.70;;;;;;;18.71;45.95;99899.50;5002843;28;20113;-67
2022/12/29 02:02:57;;;;;;;1.63;0.75;;;;;;;18.68;45.96;99882.19;5001636;28;20029;-69
2022/12/29 02:05:57;;;;;;;1.45;0.70;;;;;;;18.73;46.11;99876.47;5003554;28;20044;-67
2022/12/29 02:08:26;;;;;;;1.42;0.60;;;;;;;18.71;46.07;99881.03;4988018;28;20097;-67
2022/12/29 02:10:52;;;;;;;4.10;0.70;;;;;;;18.66;45.95;99876.25;4997034;28;20041;-67
2022/12/29 02:13:19;;;;;;;1.25;0.60;;;;;;;18.70;46.10;99887.31;4988029;28;20744;-67
2022/12/29 02:16:13;;;;;;;1.67;0.70;;;;;;;18.68;46.12;99876.91;4983665;28;20092;-68
2022/12/29 02:18:42;;;;;;;1.95;0.70;;;;;;;18.67;45.89;99873.47;4993425;28;20044;-68
2022/12/29 02:21:28;;;;;;;1.63;0.70;;;;;;;18.67;45.91;99873.47;5002788;28;20038;-68
2022/12/29 02:24:05;;;;;;;1.25;0.70;;;;;;;18.53;45.73;99863.41;4997186;28;20050;-68
2022/12/29 02:26:49;;;;;;;1.90;0.70;;;;;;;18.65;45.93;99875.41;4994357;28;20034;-68
2022/12/29 02:29:29;;;;;;;1.77;0.65;;;;;;;18.65;45.99;99871.94;5002539;28;20168;-68
2022/12/29 02:32:03;;;;;;;2.80;0.70;;;;;;;18.62;45.94;99862.50;4998231;28;20030;-70
2022/12/29 02:34:37;;;;;;;2.65;0.88;;;;;;;18.61;45.92;99862.66;4986042;28;20038;-67
2022/12/29 02:37:22;;;;;;;2.55;0.70;;;;;;;18.62;45.98;99862.50;4994866;28;20521;-68
2022/12/29 02:40:11;;;;;;;1.75;0.80;;;;;;;18.59;46.06;99852.25;4984230;28;20022;-68
2022/12/29 02:42:50;;;;;;;3.15;0.70;;;;;;;18.61;45.89;99852.94;4999075;28;21286;-72
2022/12/29 02:45:30;;;;;;;1.35;0.60;;;;;;;18.60;46.03;99861.00;4982121;28;20034;-68
2022/12/29 02:48:01;;;;;;;1.40;0.60;;;;;;;18.58;46.02;99866.44;4989639;28;20493;-68
2022/12/29 02:50:34;;;;;;;2.08;0.65;;;;;;;18.56;46.00;99855.19;5002836;28;20048;-68
2022/12/29 02:53:04;;;;;;;1.83;0.60;;;;;;;18.60;45.94;99858.38;5002272;28;20062;-68
2022/12/29 02:55:29;;;;;;;1.77;0.70;;;;;;;18.56;46.01;99849.09;5002331;28;20029;-67
2022/12/29 02:58:21;;;;;;;1.40;0.50;;;;;;;18.58;45.96;99853.25;5002428;28;20030;-68
2022/12/29 03:01:21;;;;;;;1.83;0.80;;;;;;;18.58;46.02;99849.75;5002185;28;20026;-68
2022/12/29 03:03:55;;;;;;;2.63;0.70;;;;;;;18.57;46.14;99845.47;5002198;28;20041;-68
2022/12/29 03:06:53;;;;;;;1.33;0.60;;;;;;;18.55;45.96;99843.00;4989734;28;20506;-68
2022/12/29 03:09:21;;;;;;;2.83;0.80;;;;;;;18.58;45.95;99852.41;4982628;28;20042;-68
2022/12/29 03:12:07;;;;;;;1.20;0.65;;;;;;;18.55;45.92;99842.16;4999259;28;20088;-68
2022/12/29 03:17:55;;;;;;;1.42;0.50;;;;;;;18.57;45.97;99851.56;4982871;28;20447;-66
2022/12/29 03:20:27;;;;;;;2.65;0.60;;;;;;;18.52;46.05;99840.66;4990157;28;20517;-71
2022/12/29 03:23:00;;;;;;;1.42;0.60;;;;;;;18.54;45.65;99845.78;5002077;28;20061;-68
2022/12/29 03:25:30;;;;;;;1.75;0.63;;;;;;;18.52;46.03;99831.88;5001972;28;20123;-69
2022/12/29 03:28:00;;;;;;;3.58;0.90;;;;;;;18.50;46.00;99826.78;4996562;28;20049;-68
2022/12/29 03:30:29;;;;;;;1.55;0.60;;;;;;;18.52;46.07;99834.53;4993428;28;20037;-69
2022/12/29 03:32:59;;;;;;;0.90;0.45;;;;;;;18.49;46.02;99825.94;4982827;28;20038;-72
2022/12/29 03:35:29;;;;;;;1.95;0.70;;;;;;;18.53;45.96;99830.91;4990304;28;20058;-73
2022/12/29 03:38:16;;;;;;;1.95;0.60;;;;;;;18.52;45.98;99826.63;4982398;28;20042;-69
2022/12/29 03:40:46;;;;;;;1.50;0.60;;;;;;;18.53;45.98;99830.91;4982102;28;20022;-68
2022/12/29 03:43:12;;;;;;;1.65;0.60;;;;;;;18.51;45.77;99838.16;4982132;28;20026;-68
2022/12/29 03:45:38;;;;;;;1.83;0.60;;;;;;;18.48;45.72;99837.50;4991373;28;20041;-70
2022/12/29 03:48:04;;;;;;;1.40;0.57;;;;;;;18.49;45.77;99833.84;4998424;28;20034;-69
2022/12/29 03:50:29;;;;;;;2.75;0.73;;;;;;;18.48;45.87;99832.22;4987086;28;20030;-67
2022/12/29 03:52:54;;;;;;;1.98;0.73;;;;;;;18.49;45.44;99843.59;4985285;28;20096;-67
2022/12/29 03:55:20;;;;;;;1.63;0.70;;;;;;;18.48;45.70;99848.06;4986253;28;20507;-67
2022/12/29 03:57:45;;;;;;;1.85;0.57;;;;;;;18.48;45.78;99848.06;4987546;28;20049;-70
2022/12/29 04:00:11;;;;;;;2.25;0.70;;;;;;;18.47;45.66;99861.41;4983503;28;20034;-69
2022/12/29 04:02:36;;;;;;;1.58;0.57;;;;;;;18.45;45.62;99858.91;4985594;28;20042;-68
2022/12/29 04:05:02;;;;;;;1.80;0.73;;;;;;;18.45;45.80;99858.06;4984457;28;20061;-70
2022/12/29 04:07:27;;;;;;;1.33;0.50;;;;;;;18.43;45.81;99850.28;4981466;28;20034;-68
2022/12/29 04:09:52;;;;;;;3.13;0.80;;;;;;;18.47;45.80;99835.84;4981989;28;20034;-68
2022/12/29 04:12:18;;;;;;;2.20;0.60;;;;;;;18.44;45.68;99843.22;4989635;28;20044;-67
2022/12/29 04:14:43;;;;;;;1.90;0.60;;;;;;;18.45;45.79;99856.25;4990241;28;20032;-67
2022/12/29 04:17:08;;;;;;;1.75;0.68;;;;;;;18.43;46.05;99857.38;4981917;28;20368;-70
2022/12/29 04:19:34;;;;;;;3.88;0.68;;;;;;;18.41;45.90;99867.25;4984166;28;20057;-71
2022/12/29 04:21:59;;;;;;;1.00;0.50;;;;;;;18.41;46.01;99881.28;4997624;28;20030;-68
2022/12/29 04:24:24;;;;;;;2.28;0.80;;;;;;;18.44;46.00;99877.53;5000999;28;20073;-69
2022/12/29 04:26:49;;;;;;;1.30;0.60;;;;;;;18.39;45.87;99877.13;4984942;28;20041;-70
2022/12/29 04:29:15;;;;;;;2.88;0.70;;;;;;;18.43;45.79;99879.31;4987917;28;20302;-70
2022/12/29 04:31:40;;;;;;;2.30;0.60;;;;;;;18.41;45.77;99877.81;4990415;28;20030;-68
2022/12/29 04:34:05;;;;;;;1.27;0.52;;;;;;;18.39;45.95;99883.25;4989526;28;20034;-72
2022/12/29 04:36:31;;;;;;;2.92;0.75;;;;;;;18.41;46.00;99877.81;5000092;28;20053;-68
2022/12/29 04:38:56;;;;;;;1.98;0.60;;;;;;;18.38;45.68;99886.84;4988276;28;20062;-69
2022/12/29 04:41:22;;;;;;;2.00;0.60;;;;;;;18.39;45.63;99888.53;4985126;28;20050;-68
2022/12/29 04:43:47;;;;;;;2.03;0.60;;;;;;;18.37;45.42;99881.72;4985882;28;20034;-72
2022/12/29 04:46:12;;;;;;;3.55;0.75;;;;;;;18.36;45.81;99896.72;4993725;28;20474;-68
2022/12/29 04:48:38;;;;;;;1.65;0.50;;;;;;;18.39;45.70;99914.91;5003137;28;20046;-72
2022/12/29 04:51:03;;;;;;;2.50;0.60;;;;;;;18.37;45.76;99900.19;5004802;28;20022;-67
2022/12/29 04:53:29;;;;;;;2.83;0.65;;;;;;;18.34;45.49;99901.34;5002044;28;20134;-67
2022/12/29 04:55:54;;;;;;;4.53;0.90;;;;;;;18.37;45.55;99914.19;4996035;28;20117;-68
2022/12/29 04:58:20;;;;;;;3.92;0.80;;;;;;;18.33;45.54;99899.66;4984641;28;20038;-67
2022/12/29 05:00:45;;;;;;;2.58;0.80;;;;;;;18.38;45.33;99920.31;4998535;28;20119;-68
2022/12/29 05:03:11;;;;;;;2.10;0.60;;;;;;;18.36;45.30;99917.84;4995638;28;20038;-67
2022/12/29 05:05:36;;;;;;;2.97;0.77;;;;;;;18.36;45.42;99917.84;4987033;28;20550;-68
2022/12/29 05:08:02;;;;;;;2.03;0.63;;;;;;;18.36;45.48;99919.63;5003962;28;20433;-70
2022/12/29 05:10:27;;;;;;;3.30;0.80;;;;;;;18.36;45.32;99933.66;5004343;28;20048;-70
2022/12/29 05:12:53;;;;;;;3.55;0.85;;;;;;;18.33;45.20;99930.50;4992411;28;20128;-68
2022/12/29 05:15:18;;;;;;;1.83;0.50;;;;;;;18.30;44.99;99928.97;5001722;28;20045;-68
2022/12/29 05:17:43;;;;;;;2.47;0.75;;;;;;;18.32;44.88;99948.09;4999540;28;20080;-68
2022/12/29 05:20:09;;;;;;;2.17;0.75;;;;;;;18.31;44.92;99935.91;4985000;28;20116;-68
2022/12/29 05:22:35;;;;;;;4.60;0.80;;;;;;;18.31;45.07;99949.94;5003632;28;20363;-67
2022/12/29 05:25:00;;;;;;;2.30;0.63;;;;;;;18.31;44.91;99943.84;5004006;28;20040;-68
2022/12/29 05:27:25;;;;;;;2.83;0.70;;;;;;;18.29;45.21;99945.75;5001625;28;20100;-67
2022/12/29 05:29:51;;;;;;;3.38;0.80;;;;;;;18.29;44.92;99945.75;5003871;28;20065;-67
2022/12/29 05:32:16;;;;;;;2.63;0.70;;;;;;;18.30;45.04;99939.53;5003682;28;20030;-68
2022/12/29 05:34:41;;;;;;;2.23;0.70;;;;;;;18.29;44.93;99954.53;4997564;28;20492;-68
2022/12/29 05:37:06;;;;;;;2.85;0.70;;;;;;;18.27;44.96;99945.91;5001806;28;20294;-68
2022/12/29 05:39:32;;;;;;;2.30;0.70;;;;;;;18.24;45.14;99945.38;5001510;28;20508;-68
2022/12/29 05:41:57;;;;;;;3.55;0.60;;;;;;;18.26;45.08;99960.09;4997668;28;20034;-68
2022/12/29 05:44:23;;;;;;;2.95;0.70;;;;;;;18.28;44.98;99957.31;5002310;28;20524;-68
2022/12/29 05:46:48;;;;;;;2.25;0.60;;;;;;;18.24;44.83;99962.03;5003317;28;20471;-68
2022/12/29 05:49:13;;;;;;;1.58;0.60;;;;;;;18.28;45.00;99979.22;5001255;28;20030;-68
2022/12/29 05:51:39;;;;;;;2.55;0.90;;;;;;;18.27;45.08;99985.47;4987744;28;20057;-68
2022/12/29 05:54:04;;;;;;;3.83;0.87;;;;;;;18.28;44.86;99970.50;4986072;28;20517;-68
2022/12/29 05:56:29;;;;;;;3.20;0.70;;;;;;;18.26;44.58;99980.34;4988988;28;20279;-71
2022/12/29 05:58:55;;;;;;;3.28;0.80;;;;;;;18.23;44.82;99978.84;4996602;28;20505;-68
2022/12/29 06:01:20;;;;;;;3.00;0.68;;;;;;;18.23;44.64;99985.91;4986810;28;20022;-67
2022/12/29 06:03:45;;;;;;;1.70;0.60;;;;;;;18.24;44.58;99967.31;4992036;28;20108;-67
2022/12/29 06:06:11;;;;;;;2.70;0.75;;;;;;;18.24;44.79;99971.75;4984091;28;20034;-69
2022/12/29 06:08:36;;;;;;;1.90;0.70;;;;;;;18.26;44.69;99977.69;4987201;28;20038;-72
2022/12/29 06:11:01;;;;;;;2.45;0.60;;;;;;;18.22;44.93;99979.81;5003058;28;20912;-68
2022/12/29 06:13:27;;;;;;;2.97;0.82;;;;;;;18.24;44.88;99972.56;4995147;28;20048;-68
2022/12/29 06:15:52;;;;;;;1.80;0.60;;;;;;;18.29;45.09;99988.81;5000551;28;20042;-68
2022/12/29 06:18:18;;;;;;;3.75;0.98;;;;;;;18.31;45.08;99976.31;4991775;28;20033;-68
2022/12/29 06:20:43;;;;;;;2.00;0.70;;;;;;;18.34;45.14;99967.28;4997807;28;20092;-69
2022/12/29 06:23:08;;;;;;;2.40;0.55;;;;;;;18.39;45.25;99985.28;4988453;28;20047;-72
2022/12/29 06:25:35;;;;;;;1.77;0.60;;;;;;;18.42;45.17;99980.56;4983937;28;20038;-68
2022/12/29 06:28:01;;;;;;;1.73;0.50;;;;;;;18.45;44.99;99960.94;4996553;28;20048;-68
2022/12/29 06:30:27;;;;;;;1.95;0.60;;;;;;;18.52;45.07;99971.72;4985867;28;20108;-68
2022/12/29 06:32:52;;;;;;;2.72;0.75;;;;;;;18.55;44.91;99974.06;4989103;28;20042;-72
2022/12/29 06:35:17;;;;;;;2.00;0.50;;;;;;;18.57;44.70;99961.59;4998187;28;20038;-68
2022/12/29 06:37:43;;;;;;;1.80;0.57;;;;;;;18.61;44.56;99974.34;4996348;28;20045;-67
2022/12/29 06:40:09;;;;;;;2.40;0.70;;;;;;;18.63;44.67;99958.34;4993879;28;20038;-71
2022/12/29 06:42:35;;;;;;;3.63;0.77;;;;;;;18.63;44.50;99953.06;4992966;28;20944;-73
2022/12/29 06:45:01;;;;;;;3.00;0.50;;;;;;;18.67;44.57;99976.38;4996981;28;20040;-68
2022/12/29 06:47:26;;;;;;;2.97;0.60;;;;;;;18.66;44.42;99969.44;5002468;28;20057;-68
2022/12/29 06:49:51;;;;;;;1.77;0.60;;;;;;;18.66;44.84;99969.44;4983445;28;20521;-68
2022/12/29 06:52:17;;;;;;;3.08;0.70;;;;;;;18.73;44.39;99971.47;4991363;28;20034;-68
2022/12/29 06:54:42;;;;;;;2.67;0.65;;;;;;;18.73;44.47;99959.09;5002257;28;20064;-73
2022/12/29 06:57:07;;;;;;;3.80;0.80;;;;;;;18.76;44.26;99958.81;5002216;28;20029;-68
2022/12/29 06:59:33;;;;;;;3.08;0.85;;;;;;;18.80;44.23;99967.25;5002210;28;20071;-68
2022/12/29 07:01:58;;;;;;;4.13;0.77;;;;;;;18.81;44.01;99985.56;5001285;28;20485;-68
2022/12/29 07:04:23;;;;;;;2.33;0.70;;;;;;;18.80;43.91;99980.44;4992722;28;20037;-68
2022/12/29 07:06:49;;;;;;;3.40;0.60;;;;;;;18.85;44.25;99972.97;4990914;28;20042;-66
2022/12/29 07:09:14;;;;;;;2.92;0.70;;;;;;;18.89;44.21;99986.69;4995082;28;20056;-67
2022/12/29 07:11:39;;;;;;;3.50;0.73;;;;;;;18.90;44.18;99975.13;4989533;28;20663;-69
2022/12/29 07:14:04;;;;;;;2.70;0.70;;;;;;;18.89;44.40;99997.25;4992980;28;20045;-72
2022/12/29 07:16:31;;;;;;;3.25;0.80;;;;;;;18.87;44.18;99997.38;4996136;28;20053;-68
2022/12/29 07:18:57;;;;;;;4.05;0.70;;;;;;;18.88;44.35;100008.78;4995643;28;20100;-68
2022/12/29 07:21:22;;;;;;;2.47;0.70;;;;;;;18.88;44.61;100009.59;4997194;28;20030;-68
2022/12/29 07:23:47;;;;;;;2.80;0.65;;;;;;;18.89;44.31;100019.19;4991738;28;20030;-68
2022/12/29 07:26:17;;;;;;;4.70;1.23;;;;;;;18.91;44.28;100016.38;4993163;28;20034;-68
2022/12/29 07:28:43;;;;;;;2.30;0.60;;;;;;;18.92;44.52;100025.97;4985577;28;20448;-67
2022/12/29 07:31:28;;;;;;;3.05;0.80;;;;;;;18.94;44.55;100026.66;4992034;28;20121;-68
2022/12/29 07:33:54;;;;;;;3.10;0.90;;;;;;;18.93;44.20;100022.34;4990448;28;20049;-68
2022/12/29 07:36:19;;;;;;;2.35;0.88;;;;;;;18.93;44.48;100036.41;4987246;28;20054;-72
2022/12/29 07:38:44;;;;;;;4.47;0.80;;;;;;;18.94;44.65;100030.13;4990293;28;20053;-65
2022/12/29 07:41:10;;;;;;;3.03;0.82;;;;;;;18.97;44.45;100029.81;4993790;28;20505;-68
2022/12/29 07:43:35;;;;;;;5.13;1.00;;;;;;;18.97;44.41;100042.19;4990764;28;20037;-68
2022/12/29 07:46:00;;;;;;;3.47;0.93;;;;;;;18.93;44.82;100035.53;4991637;28;20680;-70
2022/12/29 07:48:26;;;;;;;3.70;0.90;;;;;;;18.94;44.83;100039.84;4989289;28;20077;-72
2022/12/29 07:50:52;;;;;;;4.85;1.00;;;;;;;18.97;44.80;100042.19;4992164;28;20394;-73
2022/12/29 07:53:18;;;;;;;3.38;0.90;;;;;;;18.95;44.77;100025.69;4973953;28;20844;-71
2022/12/29 07:55:44;;;;;;;2.55;0.80;;;;;;;18.93;44.80;100028.47;4991367;28;20033;-70
2022/12/29 07:58:09;;;;;;;3.10;0.80;;;;;;;18.96;44.74;100036.09;4988793;28;20034;-74
2022/12/29 08:00:34;;;;;;;4.55;0.85;;;;;;;18.94;44.67;100032.75;4992105;28;20545;-73
2022/12/29 08:02:59;;;;;;;3.22;0.80;;;;;;;18.96;44.66;100041.38;4987672;28;20038;-74
2022/12/29 08:05:25;;;;;;;5.38;0.90;;;;;;;18.96;44.74;100049.31;4992329;28;20053;-70
2022/12/29 08:07:50;;;;;;;3.42;0.90;;;;;;;18.93;44.82;100046.97;4996653;28;20030;-75
2022/12/29 08:10:16;;;;;;;2.85;0.77;;;;;;;18.93;44.63;100044.31;4996811;28;20065;-71
2022/12/29 08:12:42;;;;;;;3.53;0.70;;;;;;;18.93;44.80;100046.09;4994891;28;20038;-69
2022/12/29 08:15:10;;;;;;;4.32;0.88;;;;;;;18.94;44.48;100042.50;4996808;28;20034;-72
2022/12/29 08:17:35;;;;;;;4.65;0.77;;;;;;;18.90;44.26;100043.75;4993291;28;20042;-71
2022/12/29 08:20:01;;;;;;;4.20;0.82;;;;;;;18.94;44.28;100039.84;5001123;28;20131;-69
2022/12/29 08:22:26;;;;;;;4.88;1.13;;;;;;;18.95;44.00;100049.44;4998220;28;20034;-71
2022/12/29 08:24:52;;;;;;;4.72;1.02;;;;;;;18.98;43.64;100054.44;4981758;28;20038;-68
2022/12/29 08:27:17;;;;;;;4.30;0.95;;;;;;;18.98;43.53;100062.34;4988312;28;20125;-71
2022/12/29 08:29:43;;;;;;;5.20;0.95;;;;;;;19.01;43.82;100051.50;4984296;28;20105;-72
2022/12/29 08:32:08;;;;;;;4.50;0.90;;;;;;;18.96;43.79;100059.88;4989694;28;20124;-74
2022/12/29 08:34:33;;;;;;;3.65;0.90;;;;;;;19.01;43.84;100054.97;4993763;28;20030;-71
2022/12/29 08:36:59;;;;;;;4.60;0.93;;;;;;;18.98;43.78;100054.44;4991179;28;20057;-73
2022/12/29 08:39:24;;;;;;;3.90;0.85;;;;;;;18.98;43.60;100057.91;4990037;28;20026;-71
2022/12/29 08:41:49;;;;;;;2.90;0.80;;;;;;;18.98;43.52;100060.53;4987100;28;20034;-74
2022/12/29 08:44:15;;;;;;;4.22;1.13;;;;;;;18.95;43.62;100047.63;4988020;28;20463;-76
2022/12/29 08:46:40;;;;;;;5.47;1.25;;;;;;;19.02;43.65;100046.03;4989510;28;20070;-74
2022/12/29 08:49:06;;;;;;;3.97;0.95;;;;;;;19.00;43.43;100063.03;4990184;28;20054;-71
2022/12/29 08:51:31;;;;;;;3.67;0.90;;;;;;;19.00;43.63;100052.47;4989977;28;21042;-71
2022/12/29 08:53:56;;;;;;;3.78;0.80;;;;;;;18.98;43.03;100047.34;4985751;28;20031;-68
2022/12/29 08:56:23;;;;;;;3.78;0.90;;;;;;;19.04;43.08;100045.88;4982498;28;20141;-72
2022/12/29 08:58:49;;;;;;;4.97;1.13;;;;;;;19.06;43.18;100067.72;4993646;28;20030;-72
2022/12/29 09:01:14;;;;;;;3.67;0.90;;;;;;;19.06;43.33;100059.78;4990565;28;20038;-74
2022/12/29 09:03:40;;;;;;;5.78;1.13;;;;;;;19.07;43.34;100060.63;4989435;28;20037;-72
2022/12/29 09:06:05;;;;;;;4.55;1.00;;;;;;;19.07;43.20;100057.97;4986112;28;20034;-73
2022/12/29 09:08:30;;;;;;;4.70;1.15;;;;;;;19.05;43.28;100060.75;4987089;28;21237;-72
2022/12/29 09:11:12;;;;;;;4.53;0.90;;;;;;;19.05;43.41;100071.31;4992873;28;20079;-74
2022/12/29 09:13:38;;;;;;;3.13;0.80;;;;;;;19.08;43.20;100073.66;4984030;28;20046;-68
2022/12/29 09:16:03;;;;;;;4.77;1.00;;;;;;;19.11;42.97;100080.47;4980818;28;20034;-68
2022/12/29 09:18:29;;;;;;;6.03;1.20;;;;;;;19.11;43.01;100076.00;4986007;28;20279;-69
2022/12/29 09:20:58;;;;;;;4.20;0.98;;;;;;;19.12;42.82;100067.13;4994615;28;20038;-70
2022/12/29 09:23:24;;;;;;;4.40;1.02;;;;;;;19.14;42.92;100081.00;4987353;28;20097;-68
2022/12/29 09:25:49;;;;;;;4.65;1.20;;;;;;;19.12;42.75;100097.97;5000466;28;20109;-70
2022/12/29 09:28:14;;;;;;;5.38;1.30;;;;;;;19.08;42.82;100094.78;4992154;28;20949;-69
2022/12/29 09:30:41;;;;;;;3.97;1.00;;;;;;;19.11;43.01;100105.06;5000448;28;20117;-70
2022/12/29 09:33:06;;;;;;;5.75;1.13;;;;;;;19.13;42.93;100104.91;5009210;28;20063;-71
2022/12/29 09:35:32;;;;;;;4.28;0.98;;;;;;;19.10;42.85;100102.56;4998844;28;20065;-69
2022/12/29 09:37:57;;;;;;;3.03;0.93;;;;;;;19.13;42.97;100103.09;4994847;28;20030;-66
2022/12/29 09:40:31;;;;;;;5.20;1.02;;;;;;;19.14;42.91;100102.13;4985129;28;20034;-69
2022/12/29 09:43:42;;;;;;;4.88;1.23;;;;;;;19.21;43.02;100110.28;4987760;28;20096;-73
2022/12/29 09:46:10;;;;;;;5.38;1.02;;;;;;;19.18;42.86;100119.34;4979331;28;20086;-71
2022/12/29 09:48:41;;;;;;;4.45;0.98;;;;;;;19.15;43.05;100124.94;4987103;28;20045;-71
2022/12/29 09:51:15;;;;;;;7.03;1.20;;;;;;;19.12;43.06;100133.16;5000197;28;20033;-72
2022/12/29 09:54:12;;;;;;;4.13;1.45;;;;;;;19.16;43.02;100136.31;5003127;28;20030;-70
2022/12/29 09:56:38;;;;;;;2.55;0.80;;;;;;;19.14;42.82;100144.38;5002783;28;20042;-71
2022/12/29 09:59:19;;;;;;;4.25;0.88;;;;;;;19.16;42.93;100147.69;5000058;28;20033;-70
2022/12/29 10:01:53;;;;;;;4.97;1.63;;;;;;;19.14;43.02;100159.41;4990912;28;20360;-71
2022/12/29 10:04:18;;;;;;;4.68;1.05;;;;;;;19.11;42.88;100149.16;4984977;28;20486;-72
2022/12/29 10:06:54;;;;;;;4.35;1.00;;;;;;;19.12;43.11;100166.63;4981953;28;20042;-69
2022/12/29 10:09:35;;;;;;;5.45;1.27;;;;;;;19.09;43.13;100164.28;4983335;28;20117;-69
2022/12/29 10:12:09;;;;;;;4.55;0.90;;;;;;;19.14;43.04;100177.91;4980881;28;20050;-71
2022/12/29 10:14:37;;;;;;;;;;;;;;;19.21;42.90;100197.44;4983756;28;20034;-71
2022/12/29 10:17:26;;;;;;;4.78;1.00;;;;;;;19.15;43.12;100192.75;5006492;28;20289;-73
2022/12/29 10:20:03;;;;;;;3.75;1.10;;;;;;;19.11;42.73;100188.75;4988285;28;20111;-72
2022/12/29 10:22:57;;;;;;;4.20;1.13;;;;;;;19.11;43.25;100196.69;4992967;28;20037;-73
2022/12/29 10:25:25;;;;;;;3.75;1.20;;;;;;;19.06;43.13;100206.84;4992255;28;20038;-72
2022/12/29 10:27:54;;;;;;;3.22;1.08;;;;;;;19.07;43.52;100216.44;4983581;28;20034;-69
2022/12/29 10:30:20;;;;;;;4.60;1.10;;;;;;;19.08;43.16;100208.34;4992192;28;20045;-71
2022/12/29 10:32:52;;;;;;;4.07;1.10;;;;;;;19.09;43.36;100225.88;4983168;28;20034;-68
2022/12/29 10:35:19;;;;;;;3.05;0.80;;;;;;;19.06;43.10;100230.59;4983035;28;20053;-69
2022/12/29 10:37:53;;;;;;;4.50;0.90;;;;;;;19.05;43.17;100223.69;4991108;28;20747;-70
2022/12/29 10:40:25;;;;;;;5.80;1.00;;;;;;;19.08;43.19;100229.50;4985004;28;20038;-68
2022/12/29 10:42:54;;;;;;;3.63;0.90;;;;;;;19.04;43.19;100230.75;4983713;28;20109;-69
2022/12/29 10:45:23;;;;;;;6.07;1.00;;;;;;;19.05;43.19;100247.44;4982474;28;20073;-69
2022/12/29 10:48:01;;;;;;;5.85;1.02;;;;;;;19.01;43.27;100239.81;4997700;28;20029;-69
2022/12/29 10:50:29;;;;;;;3.50;1.00;;;;;;;19.00;43.18;100253.16;5001583;28;20030;-69
2022/12/29 10:52:58;;;;;;;3.40;0.90;;;;;;;18.98;43.43;100250.66;4993508;28;20030;-69
2022/12/29 10:55:28;;;;;;;4.38;1.27;;;;;;;19.00;43.57;100255.78;4985187;28;20168;-70
2022/12/29 10:57:57;;;;;;;4.75;1.20;;;;;;;18.98;43.33;100252.47;5001959;28;20038;-68
2022/12/29 11:00:22;;;;;;;4.40;1.00;;;;;;;18.96;43.40;100286.09;5001702;28;20052;-68
2022/12/29 11:03:06;;;;;;;5.18;1.00;;;;;;;18.96;43.54;100271.09;5002334;28;20034;-70
2022/12/29 11:05:56;;;;;;;4.15;1.10;;;;;;;18.97;43.46;100282.47;4990347;28;20449;-72
2022/12/29 11:08:25;;;;;;;5.57;1.08;;;;;;;18.94;43.80;100283.59;4989695;28;20470;-70
2022/12/29 11:11:06;;;;;;;5.18;1.60;;;;;;;18.92;43.88;100285.56;4993504;28;20061;-70
2022/12/29 11:13:34;;;;;;;4.43;1.00;;;;;;;18.92;43.76;100268.88;4993550;28;20386;-69
2022/12/29 11:16:00;;;;;;;5.28;1.30;;;;;;;18.90;43.85;100284.03;4983199;28;20254;-69
2022/12/29 11:18:31;;;;;;;4.90;1.05;;;;;;;18.91;43.94;100288.34;4990081;28;20395;-73
2022/12/29 11:21:00;;;;;;;5.13;1.58;;;;;;;18.93;43.92;100287.22;4988080;28;20035;-72
2022/12/29 11:23:33;;;;;;;4.85;1.20;;;;;;;18.91;44.00;100291.81;4983911;28;20030;-72
2022/12/29 11:26:15;;;;;;;5.10;1.15;;;;;;;18.89;44.17;100277.91;4991758;28;20120;-72
2022/12/29 11:28:44;;;;;;;5.00;1.38;;;;;;;18.92;44.05;100296.13;4998506;28;20038;-68
2022/12/29 11:31:10;;;;;;;3.45;0.90;;;;;;;18.91;44.02;100296.25;4990626;28;20069;-70
2022/12/29 11:33:37;;;;;;;5.93;1.10;;;;;;;18.88;44.26;100293.91;4993272;28;20065;-73
2022/12/29 11:36:10;;;;;;;5.43;1.25;;;;;;;18.90;44.23;100305.16;4981275;28;20050;-71
2022/12/29 11:38:40;;;;;;;5.28;1.10;;;;;;;18.96;44.11;100304.56;4984703;28;20034;-68
2022/12/29 11:41:10;;;;;;;6.50;1.10;;;;;;;18.90;44.30;100303.34;4983179;28;20510;-68
2022/12/29 11:43:42;;;;;;;5.53;0.95;;;;;;;18.89;44.37;100303.50;4982087;28;20034;-68
2022/12/29 11:46:16;;;;;;;5.22;0.88;;;;;;;18.90;44.45;100311.28;4985323;28;20034;-70
2022/12/29 11:48:42;;;;;;;6.93;1.27;;;;;;;18.92;44.37;100322.53;4985476;28;20037;-68
2022/12/29 11:51:09;;;;;;;3.55;0.93;;;;;;;18.88;44.41;100315.84;4981816;28;20034;-68
2022/12/29 11:53:51;;;;;;;4.47;1.00;;;;;;;18.89;44.52;100317.53;4982118;28;20038;-70
2022/12/29 11:56:22;;;;;;;6.70;1.40;;;;;;;18.92;44.41;100308.50;4987184;28;20410;-69
2022/12/29 11:58:50;;;;;;;4.68;0.98;;;;;;;18.93;44.59;100321.56;4992748;28;20281;-68
2022/12/29 12:01:23;;;;;;;5.47;1.25;;;;;;;18.90;44.54;100321.00;4984702;28;20715;-68
2022/12/29 12:04:14;;;;;;;4.22;1.00;;;;;;;18.91;44.55;100328.75;5001026;28;20038;-67
2022/12/29 12:06:56;;;;;;;6.70;1.20;;;;;;;18.89;44.45;100322.81;4986039;28;20050;-67
2022/12/29 12:09:29;;;;;;;5.57;1.35;;;;;;;18.89;44.39;100314.06;4980717;28;20034;-68